Time;durP1;ratioP1;P1;durP2;ratioP2;P2;SDS_P1;SDS_P2;PMS_P1;PMS_P2;Temp;Humidity;BMP_temperature;BMP_pressure;BME280_temperature;BME280_humidity;BME280_pressure;Samples;Min_cycle;Max_cycle;Signal;HPM_P1;HPM_P2
2022/06/09 00:02:53;;;;;;;1.20;0.72;;;16.50;99.90;;;;;;1901980;75;21632;-81
2022/06/09 00:05:45;;;;;;;1.80;0.72;;;16.50;99.90;;;;;;1887167;75;21536;-81
2022/06/09 00:08:37;;;;;;;3.98;0.60;;;16.50;99.90;;;;;;1895315;75;21143;-81
2022/06/09 00:11:29;;;;;;;2.22;0.50;;;16.60;99.90;;;;;;1883057;75;21101;-81
2022/06/09 00:17:00;;;;;;;5.33;1.22;;;16.70;99.90;;;;;;1932828;72;22150;-80
2022/06/09 00:22:49;;;;;;;1.92;0.70;;;16.80;99.90;;;;;;1948116;72;22269;-80
2022/06/09 00:25:59;;;;;;;2.33;0.90;;;16.90;99.90;;;;;;1908170;75;21039;-81
2022/06/09 00:29:08;;;;;;;2.45;0.70;;;17.00;99.90;;;;;;1884860;75;21163;-81
2022/06/09 00:32:00;;;;;;;2.05;0.68;;;17.00;99.90;;;;;;1884840;75;21188;-81
2022/06/09 00:35:10;;;;;;;5.95;0.75;;;16.90;99.90;;;;;;1884897;75;21081;-81
2022/06/09 00:38:01;;;;;;;1.37;0.60;;;16.90;99.90;;;;;;1884740;75;21159;-81
2022/06/09 00:43:34;;;;;;;1.90;0.68;;;16.90;99.90;;;;;;1962736;72;22171;-81
2022/06/09 00:46:45;;;;;;;1.60;0.70;;;17.00;99.90;;;;;;1917651;75;21098;-83
2022/06/09 00:52:40;;;;;;;0.70;0.28;;;17.00;99.90;;;;;;1932197;72;22153;-81
2022/06/09 00:55:52;;;;;;;1.50;0.30;;;16.90;99.90;;;;;;1871091;75;21086;-81
2022/06/09 01:01:40;;;;;;;2.12;0.55;;;16.40;99.90;;;;;;1929254;72;22232;-81
2022/06/09 01:04:52;;;;;;;1.75;0.37;;;16.40;99.90;;;;;;1884764;75;21135;-81
2022/06/09 01:08:04;;;;;;;1.25;0.45;;;16.30;99.90;;;;;;1884703;75;21103;-83
2022/06/09 01:10:55;;;;;;;1.72;0.60;;;16.30;99.90;;;;;;1892851;75;21094;-82
2022/06/09 01:14:07;;;;;;;1.60;0.47;;;16.20;99.90;;;;;;1884912;75;21196;-82
2022/06/09 01:17:05;;;;;;;1.02;0.50;;;16.20;99.90;;;;;;1876481;75;21142;-82
2022/06/09 01:20:15;;;;;;;1.60;0.65;;;16.20;99.90;;;;;;1902583;75;21228;-82
2022/06/09 01:23:33;;;;;;;1.60;0.50;;;16.20;99.90;;;;;;1914258;75;21047;-82
2022/06/09 01:26:57;;;;;;;1.00;0.40;;;16.20;99.90;;;;;;1878867;75;21086;-82
2022/06/09 01:29:58;;;;;;;1.15;0.40;;;16.20;99.90;;;;;;1884427;75;21338;-82
2022/06/09 01:35:37;;;;;;;0.70;0.40;;;16.20;99.90;;;;;;1938885;72;22138;-82
2022/06/09 01:38:49;;;;;;;0.70;0.53;;;16.20;99.90;;;;;;1887983;75;21160;-81
2022/06/09 01:41:59;;;;;;;2.92;0.70;;;16.20;99.90;;;;;;1902599;74;21093;-84
2022/06/09 01:47:36;;;;;;;1.07;0.60;;;16.30;99.90;;;;;;1942319;72;22262;-82
2022/06/09 01:50:48;;;;;;;1.37;0.60;;;16.40;99.90;;;;;;1909918;75;21480;-82
2022/06/09 01:54:01;;;;;;;0.68;0.50;;;16.40;99.90;;;;;;1901557;75;21100;-82
2022/06/09 01:56:56;;;;;;;1.00;0.75;;;16.50;99.90;;;;;;1902783;75;21047;-82
2022/06/09 02:00:10;;;;;;;2.72;0.30;;;16.50;99.90;;;;;;1901936;75;21081;-82
2022/06/09 02:03:04;;;;;;;1.72;0.40;;;16.40;99.90;;;;;;1905243;75;21043;-82
2022/06/09 02:05:58;;;;;;;2.72;0.30;;;16.30;99.90;;;;;;1884751;75;21063;-82
2022/06/09 02:08:50;;;;;;;2.70;0.50;;;16.20;99.90;;;;;;1901365;75;21059;-81
2022/06/09 02:11:51;;;;;;;4.95;0.88;;;16.10;99.90;;;;;;1909453;75;21079;-81
2022/06/09 02:17:23;;;;;;;0.90;0.40;;;16.00;99.90;;;;;;1945138;72;22668;-81
2022/06/09 02:20:32;;;;;;;2.42;0.40;;;15.90;99.90;;;;;;1907940;74;21114;-84
2022/06/09 02:26:23;;;;;;;0.57;0.40;;;15.70;99.90;;;;;;1945620;72;22193;-81
2022/06/09 02:29:34;;;;;;;1.80;0.40;;;15.60;99.90;;;;;;1893963;74;21120;-81
2022/06/09 02:32:44;;;;;;;2.17;0.35;;;15.60;99.90;;;;;;1886685;75;21588;-81
2022/06/09 02:35:35;;;;;;;0.95;0.33;;;15.60;99.90;;;;;;1893388;75;21497;-81
2022/06/09 02:41:25;;;;;;;1.35;0.33;;;15.70;99.90;;;;;;1941792;72;22239;-81
2022/06/09 02:44:35;;;;;;;0.65;0.20;;;15.60;99.90;;;;;;1909343;75;21086;-82
2022/06/09 02:47:45;;;;;;;1.62;0.40;;;15.60;99.90;;;;;;1907346;75;21058;-83
2022/06/09 02:50:37;;;;;;;0.45;0.30;;;15.50;99.90;;;;;;1902214;75;21136;-82
2022/06/09 02:56:26;;;;;;;0.98;0.35;;;15.40;99.90;;;;;;1929631;72;22282;-82
2022/06/09 02:59:36;;;;;;;1.80;0.40;;;15.40;99.90;;;;;;1897975;73;21829;-83
2022/06/09 03:02:47;;;;;;;1.57;0.30;;;15.30;99.90;;;;;;1896632;73;21112;-83
2022/06/09 03:05:38;;;;;;;1.02;0.30;;;15.30;99.90;;;;;;1896253;73;21537;-83
2022/06/09 03:08:48;;;;;;;1.40;0.30;;;15.20;99.90;;;;;;1888594;73;21086;-82
2022/06/09 03:11:40;;;;;;;0.35;0.23;;;15.20;99.90;;;;;;1892313;73;21066;-83
2022/06/09 03:17:09;;;;;;;0.30;0.30;;;15.30;99.90;;;;;;1935225;72;22152;-81
2022/06/09 03:20:22;;;;;;;0.98;0.40;;;15.50;99.90;;;;;;1917751;73;21635;-81
2022/06/09 03:23:32;;;;;;;0.78;0.33;;;15.70;99.90;;;;;;1940905;73;21142;-81
2022/06/09 03:26:23;;;;;;;2.80;0.50;;;15.70;99.90;;;;;;1919088;73;21045;-81
2022/06/09 03:29:33;;;;;;;1.37;0.50;;;15.60;99.90;;;;;;1937929;73;21164;-81
2022/06/09 03:32:24;;;;;;;0.75;0.40;;;15.60;99.90;;;;;;1917571;75;21121;-82
2022/06/09 03:35:16;;;;;;;0.88;0.40;;;15.70;99.90;;;;;;1925364;73;21070;-83
2022/06/09 03:38:08;;;;;;;1.40;0.47;;;15.80;99.90;;;;;;1917665;75;21644;-83
2022/06/09 03:40:59;;;;;;;1.07;0.60;;;15.80;99.90;;;;;;1929466;73;21068;-81
2022/06/09 03:46:29;;;;;;;1.75;0.60;;;16.00;99.90;;;;;;1954932;72;22230;-82
2022/06/09 03:49:39;;;;;;;2.75;0.75;;;16.00;99.90;;;;;;1933952;73;21103;-82
2022/06/09 03:52:49;;;;;;;0.85;0.55;;;16.20;99.90;;;;;;1930652;73;21027;-82
2022/06/09 03:55:40;;;;;;;2.25;0.72;;;16.30;99.90;;;;;;1929867;73;21105;-82
2022/06/09 03:58:50;;;;;;;1.57;0.60;;;16.30;99.90;;;;;;1948843;73;21072;-82
2022/06/09 04:01:42;;;;;;;2.80;0.72;;;16.40;99.90;;;;;;1931161;73;21090;-82
2022/06/09 04:04:33;;;;;;;1.90;0.50;;;16.40;99.90;;;;;;1929187;73;21142;-81
2022/06/09 04:07:25;;;;;;;1.42;0.60;;;16.40;99.90;;;;;;1940351;73;21047;-82
2022/06/09 04:10:19;;;;;;;1.60;0.55;;;16.40;99.90;;;;;;1947749;73;21043;-82
2022/06/09 04:13:11;;;;;;;1.90;0.88;;;16.50;99.90;;;;;;1927077;73;21094;-82
2022/06/09 04:16:03;;;;;;;0.78;0.40;;;16.40;99.90;;;;;;1936988;73;21054;-82
2022/06/09 04:21:39;;;;;;;3.80;0.53;;;16.30;99.90;;;;;;1950232;72;22278;-81
2022/06/09 04:24:48;;;;;;;1.82;0.50;;;16.30;99.90;;;;;;1912667;75;21105;-81
2022/06/09 04:27:58;;;;;;;0.80;0.37;;;16.30;99.90;;;;;;1903955;75;21096;-82
2022/06/09 04:30:50;;;;;;;1.90;0.45;;;16.30;99.90;;;;;;1895306;75;21051;-82
2022/06/09 04:34:00;;;;;;;0.33;0.30;;;16.30;99.90;;;;;;1888399;75;21101;-81
2022/06/09 04:36:51;;;;;;;3.85;0.50;;;16.20;99.90;;;;;;1899008;75;21042;-82
2022/06/09 04:39:43;;;;;;;1.98;0.50;;;16.20;99.90;;;;;;1907376;75;21166;-82
2022/06/09 04:42:35;;;;;;;4.47;0.70;;;16.20;99.90;;;;;;1894125;75;21161;-81
2022/06/09 04:45:26;;;;;;;1.42;0.50;;;16.20;99.90;;;;;;1897191;75;21164;-81
2022/06/09 04:48:18;;;;;;;0.93;0.50;;;16.30;99.90;;;;;;1893512;75;21212;-82
2022/06/09 04:51:11;;;;;;;1.50;0.45;;;16.30;99.90;;;;;;1905480;75;21051;-81
2022/06/09 04:56:41;;;;;;;3.70;0.85;;;16.20;99.90;;;;;;1953856;72;22351;-81
2022/06/09 05:02:29;;;;;;;3.08;0.60;;;16.30;99.90;;;;;;1964454;72;22205;-81
2022/06/09 05:05:41;;;;;;;2.55;0.50;;;16.30;99.90;;;;;;1913607;74;21094;-79
2022/06/09 05:08:53;;;;;;;2.83;0.50;;;16.20;99.90;;;;;;1917702;73;21120;-80
2022/06/09 05:11:44;;;;;;;2.90;0.50;;;16.10;99.90;;;;;;1941440;73;21124;-81
2022/06/09 05:17:35;;;;;;;1.57;0.50;;;16.10;99.90;;;;;;1928214;72;22265;-81
2022/06/09 05:20:44;;;;;;;2.55;0.60;;;16.10;99.90;;;;;;1898322;75;21139;-80
2022/06/09 05:23:53;;;;;;;2.50;0.70;;;16.00;99.90;;;;;;1896722;75;21067;-81
2022/06/09 05:26:44;;;;;;;1.92;1.05;;;16.00;99.90;;;;;;1861284;76;21098;-80
2022/06/09 05:29:54;;;;;;;3.12;0.70;;;16.00;99.90;;;;;;1894059;75;21095;-81
2022/06/09 05:32:45;;;;;;;2.30;0.40;;;16.10;99.90;;;;;;1898157;75;21507;-81
2022/06/09 05:35:37;;;;;;;4.20;0.88;;;16.20;99.90;;;;;;1905097;75;21115;-81
2022/06/09 05:47:45;;;;;;;3.17;0.90;;;16.20;99.90;;;;;;1946182;73;21556;-81
2022/06/09 05:50:55;;;;;;;4.00;1.25;;;16.30;99.90;;;;;;1920238;73;21079;-82
2022/06/09 05:53:48;;;;;;;3.85;0.98;;;16.30;99.90;;;;;;1915224;73;21101;-81
2022/06/09 05:56:58;;;;;;;2.45;0.98;;;16.50;99.90;;;;;;1941404;73;21131;-84
2022/06/09 05:59:49;;;;;;;1.98;1.02;;;16.50;99.90;;;;;;1919076;73;21615;-82
2022/06/09 06:02:42;;;;;;;4.22;1.30;;;16.40;99.90;;;;;;1920407;73;21102;-82
2022/06/09 06:08:43;;;;;;;3.45;0.80;;;16.40;99.90;;;;;;1929520;73;21124;-82
2022/06/09 06:11:36;;;;;;;3.47;0.95;;;16.50;99.90;;;;;;1940110;73;21088;-82
2022/06/09 06:17:09;;;;;;;3.85;1.30;;;16.30;99.90;;;;;;1927581;72;22203;-82
2022/06/09 06:20:19;;;;;;;1.98;0.70;;;16.40;99.90;;;;;;1839785;77;21060;-84
2022/06/09 06:23:29;;;;;;;6.08;0.90;;;16.40;99.90;;;;;;1893142;74;21158;-84
2022/06/09 06:26:21;;;;;;;4.00;1.10;;;16.40;99.90;;;;;;1899315;74;21046;-81
2022/06/09 06:29:30;;;;;;;4.45;1.22;;;16.40;99.90;;;;;;1905714;74;21046;-82
2022/06/09 06:32:22;;;;;;;3.95;1.10;;;16.40;99.90;;;;;;1882405;75;21212;-82
2022/06/09 06:35:14;;;;;;;5.10;1.25;;;16.40;99.90;;;;;;1900727;74;21527;-81
2022/06/09 06:38:07;;;;;;;5.15;0.80;;;16.30;99.90;;;;;;1859317;76;21558;-81
2022/06/09 06:40:59;;;;;;;3.65;0.90;;;16.30;99.90;;;;;;1912852;74;21132;-82
2022/06/09 06:43:52;;;;;;;4.40;1.17;;;16.20;99.90;;;;;;1910667;74;21157;-82
2022/06/09 06:46:44;;;;;;;6.58;1.00;;;16.20;99.90;;;;;;1903182;74;21052;-82
2022/06/09 06:52:15;;;;;;;1.40;0.65;;;16.30;99.90;;;;;;1936351;72;22200;-82
2022/06/09 06:58:04;;;;;;;5.90;0.78;;;16.50;99.90;;;;;;1942504;72;22679;-81
2022/06/09 07:01:14;;;;;;;2.27;1.00;;;16.50;99.90;;;;;;1895613;75;21055;-82
2022/06/09 07:04:24;;;;;;;1.47;0.45;;;16.60;99.90;;;;;;1878184;75;21157;-82
2022/06/09 07:07:16;;;;;;;1.95;0.70;;;16.60;99.90;;;;;;1890267;75;21048;-82
2022/06/09 07:10:27;;;;;;;0.30;0.30;;;16.60;99.90;;;;;;1887143;75;21216;-82
2022/06/09 07:13:18;;;;;;;1.75;0.50;;;16.50;99.90;;;;;;1872787;75;21517;-82
2022/06/09 07:16:13;;;;;;;1.50;0.65;;;16.50;99.90;;;;;;1899792;75;21168;-82
2022/06/09 07:21:48;;;;;;;2.58;0.70;;;16.70;99.90;;;;;;1926645;72;22271;-81
2022/06/09 07:24:58;;;;;;;0.72;0.50;;;16.80;99.90;;;;;;1888446;75;21646;-81
2022/06/09 07:28:08;;;;;;;1.20;0.37;;;16.70;99.90;;;;;;1899228;75;21048;-81
2022/06/09 07:33:41;;;;;;;1.47;0.47;;;16.80;99.90;;;;;;1949074;72;22264;-83
2022/06/09 07:36:52;;;;;;;2.65;0.68;;;16.80;99.90;;;;;;1884685;75;21121;-83
2022/06/09 07:42:41;;;;;;;1.00;0.55;;;16.80;99.90;;;;;;1936319;72;22225;-81
2022/06/09 07:45:51;;;;;;;3.22;0.60;;;16.80;99.90;;;;;;1875470;75;21578;-81
2022/06/09 07:51:43;;;;;;;1.47;0.60;;;16.80;99.90;;;;;;1941419;72;22617;-81
2022/06/09 07:54:55;;;;;;;1.52;0.50;;;16.70;99.90;;;;;;1920564;73;21126;-82
2022/06/09 07:58:07;;;;;;;1.87;0.70;;;16.90;99.90;;;;;;1918346;73;21137;-81
2022/06/09 08:01:00;;;;;;;2.77;0.47;;;16.90;99.90;;;;;;1950132;73;21149;-81
2022/06/09 08:04:11;;;;;;;1.82;0.40;;;17.00;99.90;;;;;;1927372;73;21055;-82
2022/06/09 08:07:03;;;;;;;1.67;0.60;;;17.10;99.90;;;;;;1920484;73;21054;-82
2022/06/09 08:09:56;;;;;;;2.42;0.78;;;17.00;99.90;;;;;;1928974;73;21059;-82
2022/06/09 08:12:49;;;;;;;3.55;1.05;;;16.90;99.90;;;;;;1913690;73;21111;-82
2022/06/09 08:15:43;;;;;;;3.30;0.80;;;16.90;99.90;;;;;;1917327;75;21151;-82
2022/06/09 08:18:35;;;;;;;2.02;0.70;;;16.60;99.90;;;;;;1918131;73;21102;-82
2022/06/09 08:21:27;;;;;;;2.20;0.93;;;16.60;99.90;;;;;;1938408;73;21719;-82
2022/06/09 08:24:36;;;;;;;4.42;0.70;;;16.70;99.90;;;;;;1937072;73;21093;-82
2022/06/09 08:27:28;;;;;;;1.65;0.70;;;16.50;99.90;;;;;;1926435;73;21088;-82
2022/06/09 08:30:19;;;;;;;2.75;0.80;;;16.40;99.90;;;;;;1891971;75;21106;-82
2022/06/09 08:33:11;;;;;;;2.08;0.80;;;16.50;99.90;;;;;;1919003;74;21027;-82
2022/06/09 08:36:03;;;;;;;1.30;0.70;;;16.60;99.90;;;;;;1928639;73;21055;-82
2022/06/09 08:41:46;;;;;;;1.80;0.53;;;17.00;99.90;;;;;;1936158;72;22348;-83
2022/06/09 08:47:41;;;;;;;2.65;0.80;;;17.30;99.90;;;;;;1942560;72;22183;-82
2022/06/09 08:50:55;;;;;;;3.50;0.60;;;17.20;99.90;;;;;;1927352;73;21057;-82
2022/06/09 08:54:12;;;;;;;3.80;0.90;;;17.20;99.90;;;;;;1924583;73;21202;-82
2022/06/09 08:57:04;;;;;;;;;;;17.30;99.90;;;;;;1951076;73;21113;-82
2022/06/09 08:59:59;;;;;;;4.03;0.62;;;17.40;99.90;;;;;;1933970;73;20416;-84
2022/06/09 09:05:38;;;;;;;3.90;0.90;;;17.20;99.90;;;;;;1942425;72;22140;-81
2022/06/09 09:11:39;;;;;;;3.25;0.90;;;16.60;99.90;;;;;;1918999;72;22649;-81
2022/06/09 09:14:54;;;;;;;2.85;0.80;;;16.60;99.90;;;;;;1904765;75;21478;-84
2022/06/09 09:18:19;;;;;;;3.52;0.90;;;16.30;99.90;;;;;;1888496;75;21043;-82
2022/06/09 09:21:29;;;;;;;4.10;1.20;;;16.20;99.90;;;;;;1893748;75;21565;-82
2022/06/09 09:24:45;;;;;;;2.45;1.05;;;16.20;99.90;;;;;;1890872;75;21106;-82
2022/06/09 09:27:40;;;;;;;3.33;0.98;;;16.10;99.90;;;;;;1884662;76;21179;-82
2022/06/09 09:30:35;;;;;;;1.47;0.90;;;16.20;99.90;;;;;;1905470;74;21093;-82
2022/06/09 09:33:29;;;;;;;1.52;0.93;;;16.40;99.90;;;;;;1893035;75;21094;-82
2022/06/09 09:36:23;;;;;;;1.47;0.70;;;16.40;99.90;;;;;;1892136;75;21113;-82
2022/06/09 09:39:17;;;;;;;2.40;0.90;;;16.40;99.90;;;;;;1905029;74;21584;-82
2022/06/09 09:42:16;;;;;;;1.67;0.70;;;16.50;99.90;;;;;;1903973;75;21101;-82
2022/06/09 09:45:16;;;;;;;1.92;1.02;;;16.50;99.90;;;;;;1900480;75;21084;-82
2022/06/09 09:48:27;;;;;;;2.12;1.00;;;16.60;99.90;;;;;;1895202;75;21055;-81
2022/06/09 09:51:23;;;;;;;2.35;0.90;;;16.70;99.90;;;;;;1913655;75;21187;-81
2022/06/09 09:54:21;;;;;;;2.40;0.90;;;16.90;99.90;;;;;;1893652;74;21139;-81
2022/06/09 09:57:18;;;;;;;2.02;1.10;;;16.90;99.90;;;;;;1905192;75;21058;-81
2022/06/09 10:00:22;;;;;;;1.10;0.80;;;17.10;99.90;;;;;;1895342;75;21125;-81
2022/06/09 10:09:50;;;;;;;3.15;1.47;;;17.90;99.90;;;;;;1905592;74;21092;-81
2022/06/09 10:13:00;;;;;;;2.20;1.45;;;18.20;99.90;;;;;;1909372;74;21085;-81
2022/06/09 10:21:31;;;;;;;1.50;1.10;;;18.30;99.90;;;;;;1933387;72;22211;-80
2022/06/09 10:24:44;;;;;;;2.05;1.27;;;18.10;99.90;;;;;;1877954;75;21266;-81
2022/06/09 10:27:57;;;;;;;2.45;1.40;;;17.70;99.90;;;;;;1881797;75;21055;-81
2022/06/09 10:30:51;;;;;;;2.85;1.50;;;17.40;99.90;;;;;;1888963;75;21570;-81
2022/06/09 10:36:51;;;;;;;1.50;0.80;;;17.30;99.90;;;;;;1930824;72;22671;-81
2022/06/09 10:42:46;;;;;;;1.95;1.00;;;17.30;99.90;;;;;;1938264;72;22181;-81
2022/06/09 10:46:00;;;;;;;3.00;0.98;;;17.40;99.90;;;;;;1889643;75;21226;-80
2022/06/09 10:56:00;;;;;;;1.82;0.93;;;17.50;99.90;;;;;;1884576;76;21090;-81
2022/06/09 10:58:54;;;;;;;1.95;0.90;;;17.40;99.90;;;;;;1902773;75;21114;-82
2022/06/09 11:04:30;;;;;;;1.87;1.00;;;17.70;99.90;;;;;;1967149;72;22151;-80
2022/06/09 11:07:54;;;;;;;3.27;0.80;;;17.80;99.90;;;;;;1923558;73;21051;-80
2022/06/09 11:16:34;;;;;;;2.75;1.35;;;17.80;99.90;;;;;;1922964;72;28139;-80
2022/06/09 11:19:51;;;;;;;2.52;1.20;;;17.90;99.90;;;;;;1901849;75;21074;-80
2022/06/09 11:23:07;;;;;;;3.95;1.27;;;17.70;99.90;;;;;;1900695;75;21149;-80
2022/06/09 11:26:02;;;;;;;2.60;0.90;;;17.60;99.90;;;;;;1901674;75;21053;-80
2022/06/09 11:32:04;;;;;;;4.47;1.62;;;17.40;99.90;;;;;;1955037;72;22581;-80
2022/06/09 11:35:33;;;;;;;4.12;1.67;;;17.60;99.90;;;;;;1924303;74;21115;-81
2022/06/09 11:38:50;;;;;;;2.22;0.95;;;18.00;99.90;;;;;;1911109;74;21098;-81
2022/06/09 11:41:45;;;;;;;3.10;1.00;;;18.10;99.90;;;;;;1908752;73;21121;-81
2022/06/09 11:44:55;;;;;;;1.95;0.98;;;18.00;99.90;;;;;;1906116;74;21055;-81
2022/06/09 11:47:48;;;;;;;3.30;1.10;;;17.90;99.90;;;;;;1928060;74;21107;-81
2022/06/09 11:50:42;;;;;;;2.40;1.10;;;18.20;99.90;;;;;;1925336;74;21519;-80
2022/06/09 11:53:39;;;;;;;2.17;1.10;;;18.30;99.90;;;;;;1918634;74;21043;-80
2022/06/09 11:56:34;;;;;;;1.77;1.07;;;18.40;99.90;;;;;;1917176;74;21117;-81
2022/06/09 11:59:37;;;;;;;2.90;0.80;;;18.60;99.90;;;;;;1922167;74;21112;-81
2022/06/09 12:02:38;;;;;;;2.22;0.95;;;18.70;99.90;;;;;;1927977;74;21055;-80
2022/06/09 12:05:32;;;;;;;2.30;0.70;;;18.80;99.90;;;;;;1911914;74;21032;-81
2022/06/09 12:08:35;;;;;;;1.35;0.70;;;18.90;99.90;;;;;;1927821;74;21172;-81
2022/06/09 12:11:29;;;;;;;2.50;1.10;;;18.90;99.90;;;;;;1925449;74;21134;-81
2022/06/09 12:14:25;;;;;;;1.02;0.55;;;19.00;99.90;;;;;;1922312;74;21176;-81
2022/06/09 12:17:23;;;;;;;1.77;0.60;;;18.80;99.90;;;;;;1915363;73;21051;-81
2022/06/09 12:23:27;;;;;;;4.33;0.50;;;18.50;99.90;;;;;;1934342;72;22300;-80
2022/06/09 12:26:55;;;;;;;1.82;0.50;;;18.50;99.90;;;;;;1901689;75;21599;-80
2022/06/09 12:33:31;;;;;;;1.50;0.60;;;18.60;99.90;;;;;;1942782;72;22289;-80
2022/06/09 12:39:23;;;;;;;1.42;0.45;;;18.60;99.90;;;;;;1950581;72;22098;-79
2022/06/09 12:42:41;;;;;;;1.62;0.50;;;18.60;99.90;;;;;;1901108;75;21095;-80
2022/06/09 12:48:39;;;;;;;0.80;0.40;;;18.20;99.90;;;;;;1956306;72;22127;-79
2022/06/09 12:51:49;;;;;;;2.40;0.33;;;18.00;99.90;;;;;;1884819;75;21474;-81
2022/06/09 12:55:02;;;;;;;2.37;1.07;;;18.00;99.90;;;;;;1893819;75;21570;-80
2022/06/09 12:57:58;;;;;;;0.98;0.20;;;18.00;99.90;;;;;;1895076;75;21121;-80
2022/06/09 13:03:51;;;;;;;2.60;0.50;;;18.20;99.90;;;;;;1940335;72;22102;-81
2022/06/09 13:07:03;;;;;;;1.87;0.37;;;18.20;99.90;;;;;;1911493;75;21638;-80
2022/06/09 13:10:22;;;;;;;4.30;0.57;;;18.40;99.90;;;;;;1901238;75;21074;-80
2022/06/09 13:13:18;;;;;;;6.22;0.42;;;18.40;99.90;;;;;;1904725;75;21046;-80
2022/06/09 13:16:30;;;;;;;2.40;0.35;;;18.50;99.90;;;;;;1908547;75;21624;-81
2022/06/09 13:22:04;;;;;;;0.65;0.37;;;18.90;99.90;;;;;;1942796;72;22095;-80
2022/06/09 13:27:55;;;;;;;1.47;0.42;;;19.60;99.90;;;;;;1937831;72;22126;-80
2022/06/09 13:33:54;;;;;;;3.08;0.50;;;20.30;99.90;;;;;;1941587;72;22241;-79
2022/06/09 13:37:13;;;;;;;3.50;0.50;;;20.30;99.90;;;;;;1901962;73;21082;-79
2022/06/09 13:40:24;;;;;;;2.12;0.82;;;20.30;99.90;;;;;;1897620;73;21133;-79
2022/06/09 13:43:25;;;;;;;2.50;0.60;;;20.30;99.90;;;;;;1905331;73;21055;-79
2022/06/09 13:46:40;;;;;;;2.05;0.60;;;20.60;99.90;;;;;;1897596;75;21064;-81
2022/06/09 13:52:27;;;;;;;3.05;0.50;;;20.80;99.90;;;;;;1949642;72;22179;-79
2022/06/09 13:55:36;;;;;;;1.57;0.42;;;21.10;99.90;;;;;;1930837;73;21054;-79
2022/06/09 13:58:46;;;;;;;0.72;0.30;;;21.80;99.90;;;;;;1921878;73;21090;-79
2022/06/09 14:04:21;;;;;;;1.45;0.40;;;23.80;99.90;;;;;;1944595;72;22225;-79
2022/06/09 14:07:30;;;;;;;2.58;0.40;;;24.50;99.90;;;;;;1932484;73;21109;-79
2022/06/09 14:13:20;;;;;;;1.67;0.70;;;24.80;99.90;;;;;;1926802;72;22176;-79
2022/06/09 14:16:33;;;;;;;1.47;0.37;;;25.10;99.90;;;;;;1898131;75;21095;-79
2022/06/09 14:19:44;;;;;;;1.90;0.62;;;24.70;99.90;;;;;;1895143;74;21042;-79
2022/06/09 14:22:36;;;;;;;3.37;0.50;;;24.30;99.90;;;;;;1917692;74;21150;-79
2022/06/09 14:25:47;;;;;;;2.60;0.50;;;24.60;99.90;;;;;;1900869;74;21087;-79
2022/06/09 14:28:38;;;;;;;1.87;0.50;;;25.10;99.90;;;;;;1906991;74;21106;-79
2022/06/09 14:34:09;;;;;;;1.57;0.20;;;24.50;99.90;;;;;;1946579;72;22585;-79
2022/06/09 14:37:22;;;;;;;1.25;0.35;;;23.80;99.90;;;;;;1899439;74;21090;-79
2022/06/09 14:40:34;;;;;;;1.52;0.40;;;23.60;99.90;;;;;;1901129;75;21133;-79
2022/06/09 14:43:26;;;;;;;3.17;0.30;;;23.90;99.90;;;;;;1891191;75;21105;-80
2022/06/09 14:46:39;;;;;;;1.75;0.50;;;24.20;99.90;;;;;;1902684;75;21072;-79
2022/06/09 14:52:12;;;;;;;1.35;0.40;;;23.40;99.90;;;;;;1972569;72;22182;-79
2022/06/09 14:55:22;;;;;;;2.90;0.82;;;22.20;99.90;;;;;;1937021;73;21089;-79
2022/06/09 14:58:32;;;;;;;3.10;0.62;;;21.90;99.90;;;;;;1924417;73;21116;-79
2022/06/09 15:01:24;;;;;;;2.42;0.65;;;21.50;99.90;;;;;;1925018;73;21531;-79
2022/06/09 15:07:15;;;;;;;4.10;0.57;;;21.00;99.90;;;;;;1958775;72;22119;-92
2022/06/09 15:10:28;;;;;;;2.15;0.60;;;21.00;99.90;;;;;;1886857;76;21073;-92
2022/06/09 15:13:41;;;;;;;2.65;0.60;;;20.80;99.90;;;;;;1903423;75;21027;-92
2022/06/09 17:07:59;;;;;;;3.27;0.60;;;19.80;99.90;;;;;;1871980;75;21179;-92
2022/06/09 17:13:53;;;;;;;1.98;0.50;;;19.80;99.90;;;;;;1977006;72;22114;-93
2022/06/09 17:17:05;;;;;;;2.20;0.70;;;19.80;99.90;;;;;;1943455;73;21217;-92
2022/06/09 17:20:16;;;;;;;7.22;0.57;;;19.60;99.90;;;;;;1918389;75;21120;-92
2022/06/09 17:23:11;;;;;;;2.25;0.68;;;19.60;99.90;;;;;;1918223;75;21070;-92
2022/06/09 17:26:22;;;;;;;1.95;0.40;;;19.50;99.90;;;;;;1940989;73;22038;-91
2022/06/09 17:32:34;;;;;;;1.52;0.40;;;19.50;99.90;;;;;;1989793;71;22254;-92
2022/06/09 17:35:49;;;;;;;2.17;0.60;;;19.30;99.90;;;;;;1977496;72;21071;-90
2022/06/09 17:39:00;;;;;;;2.50;0.50;;;19.40;99.90;;;;;;2034801;70;21480;-91
2022/06/09 17:45:03;;;;;;;1.70;0.47;;;19.20;99.90;;;;;;1952951;72;22187;-90
2022/06/09 17:48:15;;;;;;;0.88;0.30;;;19.30;99.90;;;;;;1944371;73;21169;-91
2022/06/09 17:51:25;;;;;;;2.52;0.70;;;19.40;99.90;;;;;;1918379;75;21070;-91
2022/06/09 17:54:17;;;;;;;0.78;0.47;;;19.30;99.90;;;;;;1928574;73;21136;-90
2022/06/09 17:57:29;;;;;;;3.90;0.65;;;19.30;99.90;;;;;;1939702;73;21109;-92
2022/06/09 18:00:25;;;;;;;1.65;0.50;;;19.30;99.90;;;;;;1931327;73;21123;-92
2022/06/09 18:03:18;;;;;;;2.67;0.40;;;19.20;99.90;;;;;;1917915;75;21098;-91
2022/06/09 18:06:10;;;;;;;3.35;0.40;;;19.10;99.90;;;;;;1925592;73;21089;-92
2022/06/09 18:09:03;;;;;;;3.45;0.80;;;19.20;99.90;;;;;;1922077;74;21094;-91
2022/06/09 18:11:55;;;;;;;2.33;0.60;;;19.00;99.90;;;;;;1927837;73;21106;-91
2022/06/09 18:14:47;;;;;;;3.22;0.50;;;19.10;99.90;;;;;;1918759;73;21139;-92
2022/06/09 18:20:20;;;;;;;2.17;0.50;;;19.00;99.90;;;;;;1938025;72;22687;-91
2022/06/09 18:23:30;;;;;;;2.25;0.82;;;19.10;99.90;;;;;;1890207;75;21108;-91
2022/06/09 18:26:40;;;;;;;2.45;0.62;;;19.70;99.90;;;;;;1889271;75;21141;-92
2022/06/09 18:41:42;;;;;;;3.42;0.40;;;20.80;99.90;;;;;;2074581;68;22095;-91
2022/06/09 18:44:52;;;;;;;2.80;0.47;;;19.50;99.90;;;;;;2004732;70;21131;-91
2022/06/09 18:48:03;;;;;;;1.02;0.40;;;19.40;99.90;;;;;;2016731;70;21081;-91
2022/06/09 18:50:55;;;;;;;2.30;0.50;;;19.30;99.90;;;;;;2011298;70;21084;-90
2022/06/09 18:54:05;;;;;;;2.35;0.60;;;19.30;99.90;;;;;;2011058;70;21072;-91
2022/06/09 18:56:57;;;;;;;1.20;0.40;;;19.30;99.90;;;;;;2000940;70;21082;-91
2022/06/09 18:59:48;;;;;;;2.55;0.50;;;19.20;99.90;;;;;;2008884;70;21086;-90
2022/06/09 19:02:40;;;;;;;0.75;0.30;;;19.20;99.90;;;;;;2011863;70;21052;-90
2022/06/09 19:08:19;;;;;;;1.67;0.60;;;19.10;99.90;;;;;;1938723;72;22736;-90
2022/06/09 19:14:09;;;;;;;2.33;0.80;;;19.00;99.90;;;;;;1934466;72;22227;-89
2022/06/09 19:17:19;;;;;;;2.10;0.55;;;19.00;99.90;;;;;;1907310;75;21111;-91
2022/06/09 19:20:30;;;;;;;2.45;0.50;;;19.10;99.90;;;;;;1885785;75;21089;-90
2022/06/09 19:23:24;;;;;;;1.80;0.55;;;19.00;99.90;;;;;;1882984;75;21073;-91
2022/06/09 19:26:34;;;;;;;2.55;0.50;;;18.90;99.90;;;;;;1901368;75;21092;-92
2022/06/09 19:32:40;;;;;;;1.85;0.50;;;18.80;99.90;;;;;;1965387;71;22518;-90
2022/06/09 19:35:53;;;;;;;3.08;0.60;;;18.80;99.90;;;;;;2003844;70;21133;-91
2022/06/09 19:39:06;;;;;;;2.80;0.50;;;18.70;99.90;;;;;;1996881;70;21021;-89
2022/06/09 19:41:58;;;;;;;2.52;0.72;;;18.70;99.90;;;;;;2009889;70;21124;-91
2022/06/09 19:45:09;;;;;;;2.25;0.60;;;18.70;99.90;;;;;;1952519;72;21131;-91
2022/06/09 19:48:05;;;;;;;3.20;0.45;;;18.70;99.90;;;;;;2017772;70;21025;-92
2022/06/09 19:53:43;;;;;;;3.20;0.60;;;18.60;99.90;;;;;;1953224;72;22154;-90
2022/06/09 19:56:54;;;;;;;2.30;0.60;;;18.70;99.90;;;;;;1917669;75;21166;-90
2022/06/09 20:00:05;;;;;;;1.90;0.50;;;18.70;99.90;;;;;;1920418;73;21055;-90
2022/06/09 20:02:59;;;;;;;1.72;0.60;;;18.70;99.90;;;;;;1918028;75;21055;-91
2022/06/09 20:06:12;;;;;;;3.55;0.60;;;18.70;99.90;;;;;;1918195;73;21109;-90
2022/06/09 20:11:45;;;;;;;2.65;0.80;;;18.80;99.90;;;;;;1951376;72;22378;-89
2022/06/09 20:14:55;;;;;;;2.40;0.57;;;18.80;99.90;;;;;;1930027;73;21043;-91
2022/06/09 20:18:06;;;;;;;1.72;0.47;;;18.70;99.90;;;;;;1930337;73;21054;-90
2022/06/09 20:21:01;;;;;;;2.75;0.68;;;18.70;99.90;;;;;;1925352;73;21087;-91
2022/06/09 20:24:12;;;;;;;2.67;0.50;;;18.70;99.90;;;;;;1927596;73;21124;-89
2022/06/09 20:27:10;;;;;;;2.35;0.50;;;18.70;99.90;;;;;;1920044;73;21136;-90
2022/06/09 20:30:01;;;;;;;4.65;0.65;;;18.60;99.90;;;;;;1924181;74;21044;-90
2022/06/09 20:32:53;;;;;;;2.50;0.55;;;18.60;99.90;;;;;;1921533;73;21092;-87
2022/06/09 20:35:45;;;;;;;4.08;0.70;;;18.60;99.90;;;;;;1945609;73;21062;-89
2022/06/09 20:38:38;;;;;;;3.08;0.70;;;18.40;99.90;;;;;;1920188;73;21140;-90
2022/06/09 20:44:13;;;;;;;3.00;0.80;;;18.00;99.90;;;;;;1948805;72;22097;-89
2022/06/09 20:47:26;;;;;;;2.05;0.60;;;17.80;99.90;;;;;;1932403;73;21031;-90
2022/06/09 20:50:36;;;;;;;2.47;0.60;;;17.70;99.90;;;;;;1948411;73;20999;-91
2022/06/09 20:53:28;;;;;;;2.55;0.70;;;17.50;99.90;;;;;;1940605;73;21067;-89
2022/06/09 20:56:38;;;;;;;3.17;0.50;;;17.40;99.90;;;;;;1932155;73;21030;-90
2022/06/09 21:02:10;;;;;;;2.22;0.60;;;17.30;99.90;;;;;;1939717;72;22165;-89
2022/06/09 21:05:21;;;;;;;1.55;0.62;;;17.30;99.90;;;;;;1890267;75;21071;-90
2022/06/09 21:08:31;;;;;;;3.02;0.70;;;17.30;99.90;;;;;;1907000;75;21035;-90